TOM311 EGKK-ELLX
Flight info
| Callsign | TOM311 |
|---|---|
| Flight time | 1h 15m |
| Altitude | 33000 |
| Route | ODVIK Y311 DVR UL9 KONAN UL607 REMBA |
| Aircraft | B38M/M-SDE1FGHILORVWXY/HB1 |
Departure
| Time | 2026-05-04 14:37 |
|---|---|
| Airport | London Gatwick Airport (EGKK) |
Arrival
| Time | 2026-05-04 15:52 |
|---|---|
| Airport | Luxembourg-Findel International Airport (ELLX) |
| Time | Latitude | Longitude | Altitude | Speed | Heading |
|---|---|---|---|---|---|
| 2026-05-04 14:05 | 51.15210 | -0.19461 | 206 ft | 0 kts | 78° |
| 2026-05-04 14:18 | 51.15206 | -0.19496 | 206 ft | 2 kts | 82° |
| 2026-05-04 14:19 | 51.15203 | -0.19548 | 206 ft | 2 kts | 91° |
| 2026-05-04 14:19 | 51.15205 | -0.19574 | 206 ft | 2 kts | 102° |
| 2026-05-04 14:19 | 51.15210 | -0.19599 | 206 ft | 2 kts | 120° |
| 2026-05-04 14:19 | 51.15220 | -0.19619 | 218 ft | 2 kts | 145° |
| 2026-05-04 14:20 | 51.15234 | -0.19630 | 211 ft | 1 kts | 163° |
| 2026-05-04 14:20 | 51.15238 | -0.19632 | 212 ft | 0 kts | 166° |
| 2026-05-04 14:30 | 51.15234 | -0.19630 | 206 ft | 1 kts | 166° |
| 2026-05-04 14:30 | 51.15195 | -0.19616 | 209 ft | 7 kts | 167° |
| 2026-05-04 14:31 | 51.15140 | -0.19598 | 213 ft | 9 kts | 168° |
| 2026-05-04 14:31 | 51.15020 | -0.19602 | 208 ft | 9 kts | 228° |
| 2026-05-04 14:32 | 51.14984 | -0.19807 | 216 ft | 11 kts | 257° |
| 2026-05-04 14:32 | 51.14967 | -0.19929 | 210 ft | 12 kts | 257° |
| 2026-05-04 14:32 | 51.14947 | -0.20064 | 208 ft | 13 kts | 257° |
| 2026-05-04 14:32 | 51.14927 | -0.20210 | 210 ft | 14 kts | 257° |
| 2026-05-04 14:33 | 51.14905 | -0.20364 | 208 ft | 15 kts | 257° |
| 2026-05-04 14:33 | 51.14884 | -0.20526 | 213 ft | 15 kts | 258° |
| 2026-05-04 14:33 | 51.14861 | -0.20691 | 206 ft | 16 kts | 258° |
| 2026-05-04 14:33 | 51.14838 | -0.20864 | 211 ft | 16 kts | 258° |
| 2026-05-04 14:34 | 51.14813 | -0.21040 | 213 ft | 16 kts | 256° |
| 2026-05-04 14:34 | 51.14781 | -0.21210 | 211 ft | 16 kts | 255° |
| 2026-05-04 14:34 | 51.14749 | -0.21378 | 212 ft | 15 kts | 230° |
| 2026-05-04 14:34 | 51.14663 | -0.21359 | 215 ft | 11 kts | 139° |
| 2026-05-04 14:35 | 51.14614 | -0.21329 | 212 ft | 7 kts | 164° |
| 2026-05-04 14:35 | 51.14567 | -0.21302 | 210 ft | 8 kts | 151° |
| 2026-05-04 14:35 | 51.14525 | -0.21230 | 215 ft | 9 kts | 112° |
| 2026-05-04 14:35 | 51.14526 | -0.21132 | 218 ft | 9 kts | 78° |
| 2026-05-04 14:36 | 51.14554 | -0.20928 | 215 ft | 44 kts | 77° |
| 2026-05-04 14:36 | 51.14672 | -0.20082 | 211 ft | 111 kts | 78° |
| 2026-05-04 14:36 | 51.14882 | -0.18584 | 239 ft | 163 kts | 76° |
| 2026-05-04 14:36 | 51.15149 | -0.16636 | 507 ft | 197 kts | 77° |
| 2026-05-04 14:37 | 51.15467 | -0.14326 | 854 ft | 230 kts | 77° |
| 2026-05-04 14:37 | 51.15846 | -0.11638 | 1044 ft | 274 kts | 77° |
| 2026-05-04 14:37 | 51.16295 | -0.08468 | 1400 ft | 310 kts | 77° |
| 2026-05-04 14:37 | 51.16583 | -0.05009 | 2537 ft | 305 kts | 90° |
| 2026-05-04 14:38 | 51.16547 | -0.02708 | 3466 ft | 290 kts | 90° |
| 2026-05-04 14:38 | 51.16545 | -0.02028 | 3696 ft | 290 kts | 89° |
| 2026-05-04 14:38 | 51.16585 | 0.01257 | 4058 ft | 305 kts | 87° |
| 2026-05-04 14:39 | 51.16723 | 0.04721 | 4418 ft | 319 kts | 84° |
| 2026-05-04 14:39 | 51.16954 | 0.08244 | 5182 ft | 317 kts | 83° |
| 2026-05-04 14:39 | 51.17250 | 0.11607 | 5907 ft | 299 kts | 81° |
| 2026-05-04 14:40 | 51.17344 | 0.17291 | 4810 ft | 318 kts | 89° |
| 2026-05-04 14:40 | 51.17344 | 0.17901 | 4739 ft | 319 kts | 89° |
| 2026-05-04 14:41 | 51.17327 | 0.19889 | 4584 ft | 315 kts | 91° |
| 2026-05-04 14:42 | 51.16936 | 0.26863 | 3480 ft | 320 kts | 96° |
| 2026-05-04 14:42 | 51.16689 | 0.30322 | 3302 ft | 308 kts | 95° |
| 2026-05-04 14:42 | 51.16463 | 0.33681 | 2941 ft | 303 kts | 95° |
| 2026-05-04 14:43 | 51.16272 | 0.37051 | 2420 ft | 306 kts | 92° |
| 2026-05-04 14:43 | 51.16342 | 0.40252 | 3045 ft | 262 kts | 85° |
| 2026-05-04 14:43 | 51.16356 | 0.43117 | 3545 ft | 266 kts | 90° |
| 2026-05-04 14:43 | 51.16288 | 0.46093 | 3331 ft | 272 kts | 90° |
| 2026-05-04 14:44 | 51.16419 | 0.49113 | 3077 ft | 269 kts | 82° |
| 2026-05-04 14:44 | 51.16599 | 0.52017 | 3064 ft | 260 kts | 85° |
| 2026-05-04 14:44 | 51.16626 | 0.54903 | 3065 ft | 261 kts | 90° |
| 2026-05-04 14:44 | 51.16584 | 0.57791 | 3077 ft | 261 kts | 89° |
| 2026-05-04 14:45 | 51.16567 | 0.60688 | 3118 ft | 261 kts | 88° |
| 2026-05-04 14:45 | 51.16573 | 0.63580 | 3468 ft | 263 kts | 89° |
| 2026-05-04 14:45 | 51.16574 | 0.66509 | 3851 ft | 265 kts | 89° |
| 2026-05-04 14:45 | 51.16567 | 0.69467 | 4242 ft | 267 kts | 89° |
| 2026-05-04 14:46 | 51.16560 | 0.72374 | 4761 ft | 271 kts | 88° |
| 2026-05-04 14:46 | 51.16554 | 0.75392 | 5275 ft | 273 kts | 88° |
| 2026-05-04 14:46 | 51.16548 | 0.78434 | 5780 ft | 276 kts | 89° |
| 2026-05-04 14:46 | 51.16539 | 0.81498 | 6297 ft | 278 kts | 90° |
| 2026-05-04 14:47 | 51.16530 | 0.84595 | 6790 ft | 281 kts | 90° |
| 2026-05-04 14:47 | 51.16520 | 0.87719 | 7282 ft | 283 kts | 90° |
| 2026-05-04 14:47 | 51.16509 | 0.90854 | 7863 ft | 283 kts | 90° |
| 2026-05-04 14:47 | 51.16498 | 0.94000 | 8515 ft | 285 kts | 90° |
| 2026-05-04 14:48 | 51.16485 | 0.97165 | 9167 ft | 287 kts | 90° |
| 2026-05-04 14:48 | 51.16472 | 1.00355 | 9819 ft | 289 kts | 90° |
| 2026-05-04 14:48 | 51.16457 | 1.03557 | 10423 ft | 290 kts | 90° |
| 2026-05-04 14:48 | 51.16442 | 1.06767 | 11028 ft | 290 kts | 91° |
| 2026-05-04 14:49 | 51.16426 | 1.09982 | 11645 ft | 290 kts | 91° |
| 2026-05-04 14:49 | 51.16409 | 1.13192 | 12270 ft | 290 kts | 91° |
| 2026-05-04 14:49 | 51.16391 | 1.16397 | 12908 ft | 288 kts | 91° |
| 2026-05-04 14:49 | 51.16372 | 1.19579 | 13554 ft | 287 kts | 92° |
| 2026-05-04 14:50 | 51.16353 | 1.22742 | 14164 ft | 284 kts | 91° |
| 2026-05-04 14:50 | 51.16333 | 1.25884 | 14726 ft | 283 kts | 92° |
| 2026-05-04 14:50 | 51.16311 | 1.29031 | 15192 ft | 285 kts | 92° |
| 2026-05-04 14:50 | 51.16288 | 1.32239 | 15625 ft | 288 kts | 92° |
| 2026-05-04 14:51 | 51.16260 | 1.35453 | 15998 ft | 293 kts | 95° |
| 2026-05-04 14:51 | 51.16077 | 1.38713 | 16392 ft | 297 kts | 95° |
| 2026-05-04 14:51 | 51.15957 | 1.42021 | 16784 ft | 302 kts | 95° |
| 2026-05-04 14:51 | 51.15829 | 1.45386 | 17189 ft | 306 kts | 96° |
| 2026-05-04 14:52 | 51.15719 | 1.47630 | 17447 ft | 308 kts | 96° |
| 2026-05-04 14:52 | 51.15540 | 1.51053 | 17870 ft | 312 kts | 96° |
| 2026-05-04 14:52 | 51.15368 | 1.54512 | 18282 ft | 315 kts | 96° |
| 2026-05-04 14:52 | 51.15149 | 1.59155 | 18765 ft | 319 kts | 96° |
| 2026-05-04 14:53 | 51.14975 | 1.62693 | 19130 ft | 322 kts | 97° |
| 2026-05-04 14:53 | 51.14856 | 1.65096 | 19378 ft | 324 kts | 96° |
| 2026-05-04 14:53 | 51.14676 | 1.68682 | 19748 ft | 326 kts | 96° |
| 2026-05-04 14:53 | 51.14497 | 1.72294 | 20123 ft | 328 kts | 97° |
| 2026-05-04 14:54 | 51.14315 | 1.75925 | 20501 ft | 330 kts | 97° |
| 2026-05-04 14:54 | 51.14130 | 1.79580 | 20887 ft | 332 kts | 97° |
| 2026-05-04 14:54 | 51.13943 | 1.83252 | 21268 ft | 334 kts | 97° |
| 2026-05-04 14:54 | 51.13754 | 1.86947 | 21658 ft | 335 kts | 97° |
| 2026-05-04 14:55 | 51.13563 | 1.90649 | 22037 ft | 336 kts | 97° |
| 2026-05-04 14:55 | 51.13371 | 1.94368 | 22432 ft | 337 kts | 97° |
| 2026-05-04 14:55 | 51.13177 | 1.98091 | 22831 ft | 338 kts | 97° |
| 2026-05-04 14:55 | 51.12981 | 2.01822 | 23235 ft | 338 kts | 97° |
| 2026-05-04 14:56 | 51.12784 | 2.05550 | 23625 ft | 338 kts | 98° |
| 2026-05-04 14:56 | 51.12586 | 2.09276 | 23968 ft | 338 kts | 98° |
| 2026-05-04 14:56 | 51.12387 | 2.13003 | 24313 ft | 337 kts | 98° |
| 2026-05-04 14:56 | 51.12187 | 2.16707 | 24661 ft | 336 kts | 98° |
| 2026-05-04 14:57 | 51.11986 | 2.20428 | 24918 ft | 339 kts | 98° |
| 2026-05-04 14:57 | 51.11781 | 2.24180 | 25158 ft | 341 kts | 98° |
| 2026-05-04 14:57 | 51.11574 | 2.27946 | 25398 ft | 343 kts | 98° |
| 2026-05-04 14:57 | 51.11365 | 2.31748 | 25641 ft | 346 kts | 98° |
| 2026-05-04 14:58 | 51.11154 | 2.35565 | 25895 ft | 347 kts | 98° |
| 2026-05-04 14:58 | 51.10939 | 2.39407 | 26146 ft | 349 kts | 98° |
| 2026-05-04 14:58 | 51.10723 | 2.43269 | 26400 ft | 351 kts | 98° |
| 2026-05-04 14:58 | 51.10504 | 2.47149 | 26651 ft | 352 kts | 99° |
| 2026-05-04 14:59 | 51.10283 | 2.51038 | 26913 ft | 354 kts | 99° |
| 2026-05-04 14:59 | 51.10060 | 2.54940 | 27182 ft | 355 kts | 99° |
| 2026-05-04 14:59 | 51.09608 | 2.62783 | 27708 ft | 357 kts | 99° |
| 2026-05-04 15:00 | 51.09207 | 2.66647 | 27998 ft | 352 kts | 109° |
| 2026-05-04 15:00 | 51.08548 | 2.70392 | 28266 ft | 352 kts | 110° |
| 2026-05-04 15:00 | 51.07856 | 2.74124 | 28533 ft | 352 kts | 110° |
| 2026-05-04 15:01 | 51.06496 | 2.81609 | 28997 ft | 356 kts | 110° |
| 2026-05-04 15:01 | 51.05798 | 2.85472 | 28986 ft | 363 kts | 111° |
| 2026-05-04 15:01 | 51.04366 | 2.93300 | 28999 ft | 379 kts | 110° |
| 2026-05-04 15:02 | 51.02867 | 3.01504 | 29000 ft | 394 kts | 110° |
| 2026-05-04 15:02 | 51.01299 | 3.10027 | 28994 ft | 410 kts | 110° |
| 2026-05-04 15:03 | 50.99666 | 3.18866 | 28987 ft | 425 kts | 110° |
| 2026-05-04 15:03 | 50.97969 | 3.28006 | 28980 ft | 439 kts | 110° |
| 2026-05-04 15:04 | 50.96210 | 3.37436 | 28973 ft | 450 kts | 110° |
| 2026-05-04 15:04 | 50.94434 | 3.46915 | 28970 ft | 448 kts | 110° |
| 2026-05-04 15:05 | 50.92649 | 3.56380 | 28968 ft | 448 kts | 110° |
| 2026-05-04 15:05 | 50.90859 | 3.65830 | 28968 ft | 448 kts | 110° |
| 2026-05-04 15:06 | 50.89037 | 3.75270 | 28977 ft | 448 kts | 110° |
| 2026-05-04 15:07 | 50.86295 | 3.89443 | 28960 ft | 449 kts | 111° |
| 2026-05-04 15:07 | 50.84441 | 3.98947 | 28963 ft | 449 kts | 111° |
| 2026-05-04 15:08 | 50.82583 | 4.08445 | 28963 ft | 449 kts | 111° |
| 2026-05-04 15:08 | 50.80731 | 4.17855 | 28972 ft | 449 kts | 111° |
| 2026-05-04 15:09 | 50.78876 | 4.27239 | 28958 ft | 448 kts | 111° |
| 2026-05-04 15:09 | 50.77009 | 4.36638 | 28961 ft | 448 kts | 111° |
| 2026-05-04 15:10 | 50.74196 | 4.50709 | 28962 ft | 448 kts | 111° |
| 2026-05-04 15:11 | 50.71380 | 4.64785 | 28964 ft | 449 kts | 110° |
| 2026-05-04 15:11 | 50.69580 | 4.74253 | 28969 ft | 452 kts | 111° |
| 2026-05-04 15:11 | 50.68655 | 4.78980 | 28672 ft | 450 kts | 111° |
| 2026-05-04 15:12 | 50.67728 | 4.83683 | 28392 ft | 448 kts | 111° |
| 2026-05-04 15:12 | 50.66816 | 4.88356 | 28118 ft | 446 kts | 111° |
| 2026-05-04 15:12 | 50.65518 | 4.92702 | 27890 ft | 431 kts | 131° |
| 2026-05-04 15:12 | 50.63546 | 4.96133 | 27654 ft | 415 kts | 140° |
| 2026-05-04 15:13 | 50.61432 | 4.99136 | 27347 ft | 405 kts | 142° |
| 2026-05-04 15:13 | 50.59308 | 5.02034 | 26793 ft | 400 kts | 141° |
| 2026-05-04 15:13 | 50.57334 | 5.05035 | 26245 ft | 390 kts | 137° |
| 2026-05-04 15:13 | 50.55485 | 5.08074 | 25726 ft | 380 kts | 137° |
| 2026-05-04 15:14 | 50.53641 | 5.10981 | 25201 ft | 371 kts | 139° |
| 2026-05-04 15:14 | 50.51791 | 5.13763 | 24692 ft | 367 kts | 140° |
| 2026-05-04 15:14 | 50.49960 | 5.16541 | 24202 ft | 364 kts | 139° |
| 2026-05-04 15:14 | 50.48170 | 5.19321 | 23745 ft | 361 kts | 139° |
| 2026-05-04 15:15 | 50.46393 | 5.22077 | 23210 ft | 357 kts | 139° |
| 2026-05-04 15:15 | 50.44621 | 5.24790 | 22662 ft | 355 kts | 139° |
| 2026-05-04 15:15 | 50.42862 | 5.27477 | 22127 ft | 351 kts | 139° |
| 2026-05-04 15:16 | 50.39382 | 5.32811 | 21112 ft | 350 kts | 138° |
| 2026-05-04 15:16 | 50.37648 | 5.35464 | 20596 ft | 347 kts | 138° |
| 2026-05-04 15:16 | 50.34219 | 5.40697 | 19617 ft | 342 kts | 138° |
| 2026-05-04 15:17 | 50.32522 | 5.43283 | 19101 ft | 340 kts | 138° |
| 2026-05-04 15:17 | 50.29086 | 5.48512 | 17856 ft | 337 kts | 137° |
| 2026-05-04 15:17 | 50.27384 | 5.51099 | 17179 ft | 336 kts | 137° |
| 2026-05-04 15:18 | 50.25711 | 5.53639 | 16531 ft | 334 kts | 138° |
| 2026-05-04 15:18 | 50.24047 | 5.56161 | 15901 ft | 333 kts | 138° |
| 2026-05-04 15:18 | 50.22388 | 5.58672 | 15279 ft | 331 kts | 137° |
| 2026-05-04 15:19 | 50.19117 | 5.63621 | 14050 ft | 316 kts | 137° |
| 2026-05-04 15:19 | 50.17572 | 5.65953 | 13368 ft | 303 kts | 137° |
| 2026-05-04 15:19 | 50.14586 | 5.70455 | 12061 ft | 299 kts | 136° |
| 2026-05-04 15:20 | 50.13089 | 5.72710 | 11439 ft | 299 kts | 136° |
| 2026-05-04 15:20 | 50.11592 | 5.74962 | 10830 ft | 299 kts | 136° |
| 2026-05-04 15:20 | 50.10091 | 5.77217 | 10230 ft | 298 kts | 135° |
| 2026-05-04 15:20 | 50.08616 | 5.79431 | 9589 ft | 291 kts | 135° |
| 2026-05-04 15:21 | 50.07174 | 5.81596 | 8910 ft | 285 kts | 135° |
| 2026-05-04 15:21 | 50.05764 | 5.83713 | 8253 ft | 279 kts | 135° |
| 2026-05-04 15:21 | 50.03048 | 5.87786 | 7164 ft | 263 kts | 137° |
| 2026-05-04 15:22 | 50.01746 | 5.89732 | 6659 ft | 257 kts | 137° |
| 2026-05-04 15:22 | 50.00468 | 5.91642 | 6152 ft | 255 kts | 138° |
| 2026-05-04 15:22 | 49.97930 | 5.95434 | 5215 ft | 248 kts | 139° |
| 2026-05-04 15:23 | 49.96704 | 5.97263 | 4971 ft | 243 kts | 139° |
| 2026-05-04 15:23 | 49.95487 | 5.99075 | 4737 ft | 243 kts | 140° |
| 2026-05-04 15:23 | 49.94260 | 6.00902 | 4499 ft | 246 kts | 139° |
| 2026-05-04 15:23 | 49.93015 | 6.02746 | 4241 ft | 247 kts | 139° |
| 2026-05-04 15:24 | 49.90948 | 6.05839 | 4009 ft | 242 kts | 139° |
| 2026-05-04 15:24 | 49.88534 | 6.09413 | 3995 ft | 240 kts | 139° |
| 2026-05-04 15:25 | 49.87314 | 6.11216 | 3992 ft | 238 kts | 139° |
| 2026-05-04 15:25 | 49.86175 | 6.12977 | 3995 ft | 230 kts | 131° |
| 2026-05-04 15:25 | 49.85299 | 6.15052 | 3836 ft | 231 kts | 123° |
| 2026-05-04 15:26 | 49.83703 | 6.19306 | 3485 ft | 224 kts | 123° |
| 2026-05-04 15:26 | 49.82922 | 6.21334 | 3490 ft | 216 kts | 123° |
| 2026-05-04 15:26 | 49.81373 | 6.25345 | 3482 ft | 217 kts | 124° |
| 2026-05-04 15:27 | 49.80590 | 6.27374 | 3483 ft | 216 kts | 124° |
| 2026-05-04 15:27 | 49.79046 | 6.31378 | 3485 ft | 217 kts | 122° |
| 2026-05-04 15:28 | 49.78512 | 6.36022 | 3485 ft | 223 kts | 94° |
| 2026-05-04 15:28 | 49.78601 | 6.38425 | 3489 ft | 224 kts | 88° |
| 2026-05-04 15:28 | 49.79078 | 6.43233 | 3502 ft | 231 kts | 76° |
| 2026-05-04 15:29 | 49.79617 | 6.45607 | 3495 ft | 234 kts | 72° |
| 2026-05-04 15:30 | 49.81965 | 6.54965 | 3487 ft | 232 kts | 72° |
| 2026-05-04 15:30 | 49.83865 | 6.62586 | 3927 ft | 273 kts | 71° |
| 2026-05-04 15:31 | 49.85238 | 6.68131 | 4237 ft | 280 kts | 72° |
| 2026-05-04 15:31 | 49.85932 | 6.70942 | 4377 ft | 279 kts | 72° |
| 2026-05-04 15:32 | 49.87591 | 6.79429 | 4497 ft | 267 kts | 106° |
| 2026-05-04 15:32 | 49.85205 | 6.83047 | 4510 ft | 249 kts | 178° |
| 2026-05-04 15:33 | 49.82554 | 6.80372 | 4825 ft | 251 kts | 248° |
| 2026-05-04 15:34 | 49.82276 | 6.72006 | 4986 ft | 263 kts | 262° |
| 2026-05-04 15:34 | 49.81995 | 6.69224 | 4990 ft | 260 kts | 251° |
| 2026-05-04 15:34 | 49.80669 | 6.64029 | 4983 ft | 260 kts | 244° |
| 2026-05-04 15:35 | 49.79398 | 6.58818 | 4967 ft | 259 kts | 246° |
| 2026-05-04 15:35 | 49.78775 | 6.56221 | 4985 ft | 256 kts | 245° |
| 2026-05-04 15:35 | 49.78139 | 6.53639 | 4988 ft | 256 kts | 245° |
| 2026-05-04 15:36 | 49.76878 | 6.48500 | 4978 ft | 255 kts | 245° |
| 2026-05-04 15:36 | 49.76252 | 6.45944 | 4984 ft | 253 kts | 245° |
| 2026-05-04 15:36 | 49.75626 | 6.43397 | 4987 ft | 254 kts | 245° |
| 2026-05-04 15:37 | 49.75000 | 6.40851 | 4984 ft | 254 kts | 245° |
| 2026-05-04 15:37 | 49.74436 | 6.38254 | 4984 ft | 257 kts | 252° |
| 2026-05-04 15:37 | 49.74179 | 6.35507 | 5000 ft | 260 kts | 262° |
| 2026-05-04 15:37 | 49.74227 | 6.32700 | 5013 ft | 264 kts | 273° |
| 2026-05-04 15:38 | 49.74624 | 6.29905 | 4998 ft | 269 kts | 284° |
| 2026-05-04 15:38 | 49.75362 | 6.27240 | 4991 ft | 272 kts | 295° |
| 2026-05-04 15:38 | 49.76280 | 6.24686 | 4992 ft | 269 kts | 294° |
| 2026-05-04 15:38 | 49.77120 | 6.22168 | 4982 ft | 257 kts | 293° |
| 2026-05-04 15:39 | 49.77916 | 6.19737 | 4987 ft | 252 kts | 291° |
| 2026-05-04 15:39 | 49.78547 | 6.17227 | 4986 ft | 249 kts | 281° |
| 2026-05-04 15:39 | 49.79194 | 6.11986 | 4990 ft | 247 kts | 269° |
| 2026-05-04 15:40 | 49.79158 | 6.09333 | 4990 ft | 246 kts | 261° |
| 2026-05-04 15:40 | 49.78956 | 6.06694 | 4811 ft | 248 kts | 255° |
| 2026-05-04 15:40 | 49.78464 | 6.04140 | 4600 ft | 247 kts | 244° |
| 2026-05-04 15:40 | 49.77662 | 6.01845 | 4364 ft | 236 kts | 232° |
| 2026-05-04 15:41 | 49.76628 | 5.99980 | 4131 ft | 223 kts | 220° |
| 2026-05-04 15:41 | 49.75392 | 5.98550 | 3923 ft | 224 kts | 212° |
| 2026-05-04 15:41 | 49.74128 | 5.97119 | 3734 ft | 226 kts | 217° |
| 2026-05-04 15:41 | 49.72915 | 5.95551 | 3545 ft | 228 kts | 218° |
| 2026-05-04 15:42 | 49.71711 | 5.93962 | 3359 ft | 228 kts | 219° |
| 2026-05-04 15:42 | 49.70496 | 5.92348 | 3194 ft | 227 kts | 219° |
| 2026-05-04 15:42 | 49.69302 | 5.90758 | 3041 ft | 225 kts | 219° |
| 2026-05-04 15:42 | 49.68133 | 5.89197 | 2988 ft | 219 kts | 219° |
| 2026-05-04 15:43 | 49.66976 | 5.87663 | 2995 ft | 220 kts | 219° |
| 2026-05-04 15:43 | 49.65825 | 5.86107 | 2985 ft | 220 kts | 220° |
| 2026-05-04 15:43 | 49.64690 | 5.84511 | 2993 ft | 223 kts | 221° |
| 2026-05-04 15:43 | 49.63532 | 5.82901 | 2987 ft | 225 kts | 221° |
| 2026-05-04 15:44 | 49.62360 | 5.81306 | 2992 ft | 224 kts | 217° |
| 2026-05-04 15:44 | 49.61046 | 5.80025 | 2987 ft | 224 kts | 204° |
| 2026-05-04 15:44 | 49.59589 | 5.79235 | 2990 ft | 220 kts | 192° |
| 2026-05-04 15:44 | 49.58114 | 5.78970 | 3005 ft | 212 kts | 183° |
| 2026-05-04 15:45 | 49.56631 | 5.79135 | 3013 ft | 216 kts | 170° |
| 2026-05-04 15:45 | 49.55178 | 5.79744 | 3005 ft | 217 kts | 164° |
| 2026-05-04 15:45 | 49.53746 | 5.80496 | 2994 ft | 217 kts | 160° |
| 2026-05-04 15:45 | 49.52411 | 5.81579 | 3001 ft | 217 kts | 147° |
| 2026-05-04 15:46 | 49.51276 | 5.83104 | 2991 ft | 217 kts | 134° |
| 2026-05-04 15:46 | 49.50409 | 5.84968 | 2992 ft | 215 kts | 122° |
| 2026-05-04 15:46 | 49.49840 | 5.87121 | 3001 ft | 221 kts | 108° |
| 2026-05-04 15:46 | 49.49592 | 5.89468 | 2993 ft | 223 kts | 95° |
| 2026-05-04 15:47 | 49.49692 | 5.91849 | 2991 ft | 226 kts | 82° |
| 2026-05-04 15:47 | 49.50139 | 5.94177 | 3002 ft | 228 kts | 70° |
| 2026-05-04 15:47 | 49.50908 | 5.96310 | 2998 ft | 229 kts | 56° |
| 2026-05-04 15:47 | 49.51940 | 5.98096 | 2983 ft | 216 kts | 43° |
| 2026-05-04 15:48 | 49.53063 | 5.99484 | 2979 ft | 200 kts | 43° |
| 2026-05-04 15:48 | 49.54116 | 6.00902 | 2987 ft | 203 kts | 43° |
| 2026-05-04 15:48 | 49.56171 | 6.03876 | 2829 ft | 201 kts | 51° |
| 2026-05-04 15:49 | 49.56949 | 6.05637 | 2768 ft | 198 kts | 63° |
| 2026-05-04 15:49 | 49.57611 | 6.07514 | 2772 ft | 199 kts | 65° |
| 2026-05-04 15:49 | 49.58265 | 6.09343 | 2617 ft | 192 kts | 63° |
| 2026-05-04 15:49 | 49.58904 | 6.11040 | 2374 ft | 174 kts | 64° |
| 2026-05-04 15:50 | 49.59497 | 6.12637 | 2150 ft | 171 kts | 64° |
| 2026-05-04 15:50 | 49.60061 | 6.14155 | 1904 ft | 155 kts | 63° |
| 2026-05-04 15:50 | 49.60581 | 6.15572 | 1659 ft | 149 kts | 62° |
| 2026-05-04 15:50 | 49.61089 | 6.16948 | 1433 ft | 146 kts | 62° |
| 2026-05-04 15:51 | 49.61570 | 6.18298 | 1284 ft | 143 kts | 59° |
| 2026-05-04 15:51 | 49.62070 | 6.19601 | 1212 ft | 133 kts | 62° |
| 2026-05-04 15:51 | 49.62438 | 6.20623 | 1213 ft | 83 kts | 60° |
| 2026-05-04 15:51 | 49.62668 | 6.21246 | 1218 ft | 55 kts | 60° |
| 2026-05-04 15:52 | 49.62848 | 6.21695 | 1217 ft | 44 kts | 57° |
| 2026-05-04 15:52 | 49.62985 | 6.22059 | 1220 ft | 33 kts | 60° |
| 2026-05-04 15:52 | 49.63121 | 6.22073 | 1205 ft | 24 kts | 328° |
| 2026-05-04 15:52 | 49.63152 | 6.21878 | 1199 ft | 17 kts | 243° |
| 2026-05-04 15:53 | 49.63098 | 6.21713 | 1198 ft | 18 kts | 244° |
| 2026-05-04 15:53 | 49.63041 | 6.21530 | 1198 ft | 20 kts | 244° |